Latest Weather Observations for Nambour

IDQ60901

Issued at 8:11 pm EST Saturday 5 September 2015 (issued every 10 minutes, with the page automatically refreshed every 10 minutes)

About weather observations | Map of Brisbane area stations | Latest observations for Brisbane area | Other Formats
Station Details ID: 040988 Name: NAMBOUR DAFF - HILLSIDE Lat: -26.64 Lon: 152.94 Height: 53.24 m
Data from the previous 72 hours. | See also: Recent months at Nambour
Date/Time
EST
Tmp

°C
App
Tmp
°C
Dew
Point
°C
Rel
Hum
%
Delta-T

°C
Wind Press
QNH
hPa
Press
MSL
hPa
Rain
since
9 am
mm
Dir
 
Spd
km/h
Gust
km/h
Spd
kts
Gust
kts
05/08:00pm 14.7 15.5 12.7 88 1.1 CALM 0 0 0 0 1021.3 1021.2 0.0
05/07:30pm 14.9 15.5 12.0 83 1.6 CALM 0 0 0 0 1021.2 1021.1 0.0
05/07:00pm 15.8 16.6 12.5 81 1.8 CALM 0 0 0 0 1020.9 1020.8 0.0
05/06:30pm 16.8 17.6 12.5 76 2.4 CALM 0 0 0 0 1020.7 1020.6 0.0
05/06:00pm 18.0 18.5 12.7 71 3.0 SE 2 6 1 3 1020.4 1020.3 0.0
05/05:30pm 18.7 18.5 12.9 69 3.3 ESE 6 9 3 5 1020.2 1020.1 0.0
05/05:00pm 19.2 19.7 11.5 61 4.2 CALM 0 2 0 1 1019.9 1019.8 0.0
05/04:30pm 19.4 18.4 10.9 58 4.6 ESE 7 11 4 6 1019.8 1019.7 0.0
05/04:00pm 19.9 19.2 11.9 60 4.4 ESE 7 13 4 7 1019.6 1019.5 0.0
05/03:30pm 20.8 19.5 12.5 59 4.7 ESE 11 19 6 10 1019.2 1019.1 0.0
05/03:00pm 20.7 19.4 12.4 59 4.7 E 11 20 6 11 1019.0 1018.9 0.0
05/02:30pm 21.7 19.9 12.0 54 5.5 E 13 20 7 11 1018.9 1018.8 0.0
05/02:00pm 21.1 20.4 12.0 56 5.1 ESE 7 17 4 9 1018.9 1018.8 0.0
05/01:30pm 22.3 20.9 12.3 53 5.7 E 11 20 6 11 1019.2 1019.1 0.0
05/01:00pm 21.5 20.0 9.1 45 6.6 E 7 13 4 7 1019.6 1019.5 0.0
05/12:30pm 23.1 21.9 10.2 44 7.1 SSE 7 17 4 9 1020.0 1019.9 0.0
05/12:00pm 22.9 21.9 10.3 45 6.9 S 6 11 3 6 1020.6 1020.5 0.0
05/11:30am 21.0 20.7 11.6 55 5.2 SE 4 11 2 6 1021.1 1021.0 0.0
05/11:00am 21.6 19.9 11.3 52 5.7 E 11 19 6 10 1021.6 1021.5 0.0
05/10:30am 21.1 20.6 12.0 56 5.1 SE 6 13 3 7 1021.8 1021.7 0.0
05/10:00am 20.9 20.2 12.1 57 4.9 SSE 7 15 4 8 1022.1 1022.0 0.0
05/09:30am 20.6 19.9 12.1 58 4.8 ESE 7 15 4 8 1022.2 1022.1 0.0
05/09:00am 19.9 19.0 11.4 58 4.7 SE 7 17 4 9 1022.3 1022.2 0.0
05/08:30am 19.5 18.8 11.3 59 4.5 S 6 17 3 9 1022.2 1022.1 0.0
05/08:00am 18.8 18.6 11.9 64 3.8 S 4 7 2 4 1021.9 1021.8 0.0
05/07:30am 17.3 17.1 11.8 70 3.0 W 4 7 2 4 1021.7 1021.6 0.0
05/07:00am 14.0 14.5 11.7 86 1.2 CALM 0 2 0 1 1021.4 1021.3 0.0
05/06:30am 12.4 12.6 10.6 89 0.9 CALM 0 0 0 0 1021.1 1021.0 0.0
05/06:00am 12.4 12.2 10.3 87 1.1 SW 2 6 1 3 1020.9 1020.8 0.0
05/05:30am 13.3 13.7 11.2 87 1.1 CALM 0 0 0 0 1020.6 1020.5 0.0
05/05:00am 13.6 14.0 11.1 85 1.3 CALM 0 4 0 2 1020.3 1020.2 0.0
05/04:30am 13.0 13.4 11.1 88 1.0 CALM 0 0 0 0 1020.0 1019.9 0.0
05/04:00am 13.0 13.3 10.9 87 1.1 CALM 0 0 0 0 1019.7 1019.6 0.0
05/03:30am 13.3 13.2 10.7 84 1.4 S 2 4 1 2 1019.6 1019.5 0.0
05/03:00am 13.6 13.8 10.4 81 1.7 CALM 0 0 0 0 1019.5 1019.4 0.0
05/02:30am 14.4 14.7 10.8 79 1.9 CALM 0 0 0 0 1019.6 1019.5 0.0
05/02:00am 14.8 15.1 10.8 77 2.1 CALM 0 2 0 1 1019.8 1019.7 0.0
05/01:30am 15.1 15.5 11.1 77 2.1 CALM 0 4 0 2 1020.0 1019.9 0.0
05/01:00am 15.4 15.4 11.2 76 2.2 NW 2 7 1 4 1020.2 1020.1 0.0
05/12:30am 15.2 15.2 11.0 76 2.2 NNW 2 7 1 4 1020.4 1020.3 0.0
05/12:00am 15.9 15.6 11.5 75 2.4 WSW 4 9 2 5 1020.7 1020.6 0.0
 
Date/Time
EST
Tmp

°C
App
Tmp
°C
Dew
Point
°C
Rel
Hum
%
Delta-T

°C
Wind Press
QNH
hPa
Press
MSL
hPa
Rain
since
9 am
mm
Dir
 
Spd
km/h
Gust
km/h
Spd
kts
Gust
kts
04/11:30pm 15.7 15.4 11.5 76 2.3 WSW 4 6 2 3 1020.9 1020.8 0.0
04/11:00pm 15.4 15.4 11.2 76 2.2 WSW 2 6 1 3 1020.9 1020.8 0.0
04/10:30pm 15.8 16.2 11.2 74 2.5 CALM 0 4 0 2 1020.9 1020.8 0.0
04/10:00pm 16.0 15.6 11.0 72 2.7 WSW 4 7 2 4 1021.1 1021.0 0.0
04/09:30pm 16.3 16.1 11.7 74 2.5 WSW 4 7 2 4 1020.8 1020.7 0.0
04/09:00pm 15.8 16.1 11.0 73 2.6 CALM 0 0 0 0 1020.7 1020.6 0.0
04/08:30pm 16.0 15.7 11.4 74 2.5 WSW 4 6 2 3 1020.6 1020.5 0.0
04/08:00pm 14.8 15.0 10.6 76 2.2 CALM 0 0 0 0 1020.4 1020.3 0.0
04/07:30pm 14.4 14.6 10.4 77 2.1 CALM 0 0 0 0 1020.2 1020.1 0.0
04/07:00pm 15.0 15.2 10.6 75 2.3 CALM 0 0 0 0 1019.7 1019.6 0.0
04/06:30pm 16.0 16.2 10.5 70 2.9 CALM 0 4 0 2 1019.4 1019.3 0.0
04/06:00pm 17.1 16.4 10.0 63 3.7 SW 4 4 2 2 1019.0 1018.9 0.0
04/05:30pm 18.6 18.1 9.4 55 4.9 SE 2 6 1 3 1018.6 1018.5 0.0
04/05:00pm 19.7 18.7 8.7 49 5.8 ESE 4 9 2 5 1018.1 1018.0 0.0
04/04:30pm 20.6 18.9 8.3 45 6.4 E 7 13 4 7 1017.7 1017.6 0.0
04/04:00pm 21.5 19.7 8.1 42 7.0 E 7 13 4 7 1017.3 1017.2 0.0
04/03:30pm 21.9 19.9 7.3 39 7.6 ESE 7 13 4 7 1017.1 1017.0 0.0
04/03:00pm 22.2 20.4 7.2 38 7.7 E 6 11 3 6 1017.2 1017.1 0.0
04/02:30pm 22.2 19.0 6.8 37 7.9 ESE 13 22 7 12 1017.0 1016.9 0.0
04/02:00pm 22.4 20.0 7.0 37 7.9 ESE 9 17 5 9 1016.9 1016.8 0.0
04/01:30pm 22.2 19.0 6.8 37 7.9 E 13 22 7 12 1017.1 1017.0 0.0
04/01:00pm 21.9 19.0 6.6 37 7.8 ESE 11 22 6 12 1017.5 1017.4 0.0
04/12:30pm 21.8 18.5 6.5 37 7.8 ESE 13 26 7 14 1017.8 1017.7 0.0
04/12:00pm 21.8 19.3 6.5 37 7.8 ESE 9 20 5 11 1018.0 1017.9 0.0
04/11:30am 21.5 18.8 5.8 36 7.9 S 9 15 5 8 1018.5 1018.4 0.0
04/11:00am 21.4 19.3 6.5 38 7.5 E 7 19 4 10 1018.8 1018.7 0.0
04/10:30am 21.2 18.2 4.3 33 8.2 S 9 24 5 13 1018.7 1018.6 0.0
04/10:00am 20.5 18.1 4.1 34 7.9 SE 6 15 3 8 1018.8 1018.7 0.0
04/09:30am 20.1 17.3 3.3 33 7.9 SW 7 15 4 8 1018.4 1018.3 0.0
04/09:00am 19.6 17.1 3.7 35 7.5 S 6 13 3 7 1018.0 1017.9 1.2
04/08:30am 18.5 16.2 4.7 40 6.6 SW 6 13 3 7 1018.1 1018.0 1.2
04/08:00am 17.4 14.1 4.7 43 6.0 SW 11 22 6 12 1018.0 1017.9 1.2
04/07:30am 16.5 12.8 4.5 45 5.7 SW 13 24 7 13 1017.5 1017.4 1.2
04/07:00am 15.3 12.6 5.5 52 4.7 WSW 9 15 5 8 1017.2 1017.1 1.2
04/06:30am 11.9 11.0 6.2 68 2.7 CALM 0 4 0 2 1017.0 1016.9 1.2
04/06:00am 10.3 8.9 5.5 72 2.2 E 2 4 1 2 1016.6 1016.5 1.2
04/05:30am 10.5 9.1 5.3 70 2.4 ENE 2 6 1 3 1016.4 1016.3 1.2
04/05:00am 10.5 9.1 5.5 71 2.3 E 2 6 1 3 1016.3 1016.2 1.2
04/04:30am 12.0 10.9 5.2 63 3.1 CALM 0 2 0 1 1016.0 1015.9 1.2
04/04:00am 12.6 10.7 5.1 60 3.5 SSE 4 11 2 6 1015.7 1015.6 1.2
04/03:30am 13.3 11.6 4.2 54 4.2 SSE 2 6 1 3 1015.5 1015.4 1.2
04/03:00am 14.9 13.5 3.4 46 5.2 CALM 0 4 0 2 1015.3 1015.2 1.2
04/02:30am 15.4 13.2 3.5 45 5.4 W 4 9 2 5 1015.4 1015.3 1.2
04/02:00am 16.3 13.2 3.4 42 5.9 SW 9 15 5 8 1015.6 1015.5 1.2
04/01:30am 15.1 13.8 3.9 47 5.2 CALM 0 6 0 3 1015.7 1015.6 1.2
04/01:00am 14.9 12.9 4.3 49 4.9 SSE 4 11 2 6 1015.9 1015.8 1.2
04/12:30am 15.7 13.6 3.8 45 5.5 E 4 6 2 3 1015.8 1015.7 1.2
04/12:00am 17.0 14.9 3.7 41 6.2 SSE 4 11 2 6 1016.0 1015.9 1.2
 
Date/Time
EST
Tmp

°C
App
Tmp
°C
Dew
Point
°C
Rel
Hum
%
Delta-T

°C
Wind Press
QNH
hPa
Press
MSL
hPa
Rain
since
9 am
mm
Dir
 
Spd
km/h
Gust
km/h
Spd
kts
Gust
kts
03/11:30pm 17.1 14.5 3.4 40 6.3 ESE 6 9 3 5 1015.8 1015.7 1.2
03/11:00pm 17.4 14.9 3.7 40 6.4 ESE 6 9 3 5 1015.5 1015.4 1.2
03/10:30pm 18.2 15.4 3.3 37 6.9 WSW 7 28 4 15 1015.2 1015.1 1.2
03/10:00pm 18.5 15.3 3.2 36 7.1 WSW 9 20 5 11 1015.0 1014.9 1.2
03/09:30pm 18.9 15.3 3.1 35 7.4 WSW 11 20 6 11 1014.8 1014.7 1.2
03/09:00pm 19.1 16.4 2.9 34 7.5 SW 6 15 3 8 1014.2 1014.1 1.2
03/08:30pm 19.8 16.1 2.6 32 8.0 W 11 24 6 13 1014.4 1014.3 1.2
03/08:00pm 18.3 16.0 2.6 35 7.2 W 4 11 2 6 1014.3 1014.2 1.2
03/07:30pm 20.0 17.7 2.8 32 8.1 W 4 9 2 5 1014.1 1014.0 1.2
03/07:00pm 20.6 17.7 2.4 30 8.5 W 7 15 4 8 1013.7 1013.6 1.2
03/06:30pm 21.2 18.1 1.5 27 9.1 W 7 22 4 12 1013.2 1013.1 1.2
03/06:00pm 21.8 17.4 0.4 24 9.7 W 13 28 7 15 1012.8 1012.7 1.2
03/05:30pm 22.6 18.0 -0.8 21 10.4 W 13 24 7 13 1011.8 1011.7 1.2
03/05:00pm 23.9 20.3 0.3 21 10.9 W 9 19 5 10 1010.8 1010.6 1.2
03/04:30pm 24.9 21.2 2.4 23 10.8 W 11 22 6 12 1009.9 1009.7 1.2
03/04:00pm 25.4 21.6 4.0 25 10.7 W 13 24 7 13 1009.6 1009.4 1.2
03/03:30pm 25.7 23.5 6.3 29 10.1 WNW 7 20 4 11 1009.3 1009.1 1.2
03/03:00pm 25.0 21.7 6.2 30 9.7 NW 13 28 7 15 1009.1 1008.9 1.2
03/02:30pm 25.1 21.6 7.3 32 9.4 WNW 15 24 8 13 1009.1 1008.9 1.2
03/02:00pm 24.9 22.1 10.0 39 8.2 WNW 15 30 8 16 1009.6 1009.4 1.2
03/01:30pm 23.9 20.6 9.5 40 7.8 WNW 17 32 9 17 1009.8 1009.6 1.2
03/01:00pm 24.0 22.0 12.6 49 6.6 W 15 26 8 14 1009.9 1009.7 1.2
03/12:30pm 24.4 24.3 15.9 59 5.2 WNW 11 24 6 13 1009.9 1009.7 1.2
03/12:00pm 24.0 24.5 18.4 71 3.5 NNW 13 20 7 11 1009.9 1009.7 1.0
03/11:30am 21.9 22.0 17.5 76 2.7 NNW 13 26 7 14 1010.8 1010.6 1.0
03/11:00am 23.1 23.2 18.4 75 3.0 NNW 15 30 8 16 1011.5 1011.4 1.0
03/10:30am 22.0 22.5 18.4 80 2.3 NNW 13 28 7 15 1011.9 1011.8 1.0
03/10:00am 20.3 21.4 17.9 86 1.5 NW 9 17 5 9 1012.8 1012.7 1.0
03/09:30am 19.8 20.4 17.8 88 1.2 NNW 11 20 6 11 1012.8 1012.7 1.0
03/09:00am 20.0 20.4 17.2 84 1.7 NNW 11 22 6 12 1013.1 1013.0 0.6
03/08:30am 19.8 20.0 16.8 83 1.8 NNW 11 20 6 11 1013.4 1013.3 0.4
03/08:00am 19.9 19.6 16.5 81 2.1 NNW 13 24 7 13 1013.1 1013.0 0.2
03/07:30am 20.0 19.2 16.2 79 2.3 NNW 15 24 8 13 1013.4 1013.3 0.2
03/07:00am 19.0 19.9 16.0 83 1.8 N 6 11 3 6 1013.1 1013.0 0.2
03/06:30am 18.5 19.2 15.6 83 1.7 NNE 6 7 3 4 1013.1 1013.0 0.2
03/06:00am 18.5 18.6 15.6 83 1.7 NE 9 13 5 7 1012.5 1012.4 0.2
03/05:30am 18.4 18.5 15.5 83 1.7 N 9 19 5 10 1012.4 1012.3 0.2
03/05:00am 17.8 18.7 15.1 84 1.6 NNW 4 9 2 5 1012.3 1012.2 0.2
03/04:30am 17.6 17.9 14.9 84 1.6 NNW 7 11 4 6 1012.4 1012.3 0.2
03/04:00am 17.8 17.6 14.7 82 1.8 NNW 9 13 5 7 1012.6 1012.5 0.2
03/03:30am 18.0 17.4 14.7 81 1.9 NNW 11 19 6 10 1013.1 1013.0 0.2
03/03:00am 17.8 16.8 14.7 82 1.8 N 13 20 7 11 1013.5 1013.4 0.2
03/02:30am 17.1 18.1 14.4 84 1.6 NNW 2 6 1 3 1014.7 1014.6 0.0
03/02:00am 17.3 17.8 14.0 81 1.9 W 4 6 2 3 1015.0 1014.9 0.0
03/01:30am 17.7 18.1 13.6 77 2.3 E 4 6 2 3 1014.1 1014.0 0.0
03/01:00am 17.9 18.3 13.6 76 2.4 N 4 9 2 5 1014.6 1014.5 0.0
03/12:30am 17.9 18.3 13.6 76 2.4 N 4 7 2 4 1015.4 1015.3 0.0
03/12:00am 17.7 17.7 13.6 77 2.3 NNE 6 15 3 8 1015.7 1015.6 0.0
 
Date/Time
EST
Tmp

°C
App
Tmp
°C
Dew
Point
°C
Rel
Hum
%
Delta-T

°C
Wind Press
QNH
hPa
Press
MSL
hPa
Rain
since
9 am
mm
Dir
 
Spd
km/h
Gust
km/h
Spd
kts
Gust
kts
02/11:30pm 17.6 17.4 13.1 75 2.5 NNE 6 9 3 5 1016.1 1016.0 0.0
02/11:00pm 17.8 17.9 12.7 72 2.8 NNW 4 9 2 5 1016.1 1016.0 0.0
02/10:30pm 17.4 17.4 12.5 73 2.7 NNW 4 6 2 3 1015.8 1015.7 0.0
02/10:00pm 17.2 17.2 12.3 73 2.7 NW 4 6 2 3 1015.5 1015.4 0.0
02/09:30pm 16.7 17.3 12.0 74 2.6 CALM 0 2 0 1 1015.9 1015.8 0.0
02/09:00pm 17.1 17.0 12.0 72 2.8 NNW 4 9 2 5 1015.9 1015.8 0.0
02/08:30pm 17.0 16.7 11.5 70 3.0 NNW 4 6 2 3 1016.0 1015.9 0.0

Latest Capital City Observations: Canberra | Sydney | Melbourne | Brisbane | Adelaide | Perth | Hobart | Darwin

Other Formats:

Comma delimited format used in spreadsheet applications
http://www.bom.gov.au/fwo/IDQ60901/IDQ60901.95572.axf

JavaScript Object Notation format (JSON) in row-major order
http://www.bom.gov.au/fwo/IDQ60901/IDQ60901.95572.json